• Join FlightAware (Why Join?)
  • Login
  • US Flag 
02:21PM EDT


 

Airport Tracker/Info


-or-


 

Live Flight TrackerFlight Track Log ✈ EJA831 ✈ 02-Oct-2013 ✈ CYYZ - KAPF

Flight Track Log - Related Links

Times and Time Zones

All times are in EDT time to prevent confusion due to time zone crossing. See the EJA831 flight status page for this flight to view local times or setup timezone preferences in your user account.

Time Position Orientation Groundspeed Altitude Reporting Facility
EDT Latitude Longitude Course Direction KTS MPH feet Rate Location/Type
03:02PM 43.6500 -79.6500 227° Southwest 170 196 2,400  Level Toronto Center
03:03PM 43.6167 -79.7000 227° Southwest 230 265 6,300 3,780 Climbing Toronto Center
03:04PM 43.5333 -79.7167 188° South 270 311 10,000 3,720 Climbing Toronto Center
03:05PM 43.4667 -79.7167 180° South 270 311 13,800 3,060 Climbing Toronto Center
03:06PM 43.3833 -79.7167 180° South 280 322 16,200 2,220 Climbing Toronto Center
03:07PM 43.3000 -79.7167 180° South 310 357 18,300 2,100 Climbing Toronto Center
03:08PM 43.2000 -79.7167 180° South 330 380 20,400 2,040 Climbing Toronto Center
03:09PM 43.1167 -79.7167 180° South 340 391 22,400 2,100 Climbing Toronto Center
03:10PM 43.0000 -79.7500 192° South 350 403 24,600 2,100 Climbing Toronto Center
03:11PM 42.9167 -79.7500 180° South 340 391 26,600 1,860 Climbing Toronto Center
03:12PM 42.8569 -79.7869 204° Southwest 342 394 27,900 1,560 Climbing Cleveland Center
03:13PM 42.7592 -79.8072 189° South 356 410 29,400 1,380 Climbing Cleveland Center
03:14PM 42.6606 -79.8283 189° South 359 413 30,800 1,200 Climbing Cleveland Center
03:15PM 42.5611 -79.8500 189° South 364 419 32,000 1,140 Climbing Cleveland Center
03:16PM 42.4428 -79.8742 189° South 371 427 33,200 960 Climbing Cleveland Center
03:17PM 42.3353 -79.9006 190° South 380 437 34,000 360 Climbing Cleveland Center
03:18PM 42.2272 -79.9219 188° South 398 458 34,000  Level Cleveland Center
03:19PM 42.1136 -79.9464 189° South 416 479 34,000 60 Level Cleveland Center
03:20PM 41.9989 -79.9719 189° South 419 482 34,200 600 Climbing Cleveland Center
03:21PM 41.8689 -79.9953 188° South 410 472 35,300 840 Climbing Cleveland Center
03:22PM 41.7581 -80.0186 189° South 399 459 36,000 300 Climbing Cleveland Center
03:23PM 41.6581 -80.0411 190° South 403 464 36,000  Level Cleveland Center
03:24PM 41.5211 -80.0694 189° South 414 476 36,000 360 Level Cleveland Center
03:25PM 41.4083 -80.0917 188° South 411 473 36,800 840 Climbing Cleveland Center
03:26PM 41.3014 -80.1133 189° South 395 455 37,800 960 Climbing Cleveland Center
03:27PM 41.1972 -80.1350 189° South 382 440 38,800 960 Climbing Cleveland Center
03:28PM 41.0975 -80.1550 189° South 369 425 39,900 540 Climbing Cleveland Center
03:29PM 40.9969 -80.1761 189° South 366 421 40,000  Climbing Cleveland Center
03:30PM 40.8717 -80.2006 188° South 378 435 40,000  Level Cleveland Center
03:31PM 40.7581 -80.2053 182° South 391 450 40,000  Level Cleveland Center
03:32PM 40.6494 -80.1986 177° South 394 453 40,000  Level Cleveland Center
03:33PM 40.5411 -80.1908 177° South 394 453 40,000  Level Cleveland Center
03:34PM 40.4306 -80.1825 177° South 399 459 40,000  Level Cleveland Center
03:36PM 40.2997 -80.1742 177° South 397 457 40,000  Level Cleveland Center
03:37PM 40.2036 -80.1689 178° South 392 451 40,000  Level Cleveland Center
03:38PM 40.0953 -80.1611 177° South 391 450 40,000  Level Cleveland Center
03:39PM 39.9658 -80.1517 177° South 390 449 40,000  Level Cleveland Center
03:40PM 39.8569 -80.1442 177° South 392 451 40,000  Level Cleveland Center
03:42PM 39.6367 -80.1294 177° South 382 440 40,000  Level Washington Center
03:43PM 39.5283 -80.1253 178° South 387 445 40,000  Level Washington Center
03:44PM 39.4203 -80.1186 177° South 387 445 40,000  Level Washington Center
03:45PM 39.3100 -80.1117 177° South 387 445 40,000  Level Washington Center
03:46PM 39.2036 -80.1131 181° South 392 451 40,000  Level Washington Center
03:47PM 39.1006 -80.1414 192° South 387 445 40,000  Level Washington Center
03:48PM 39.0031 -80.1781 196° South 387 445 40,000  Level Washington Center
03:49PM 38.8892 -80.2111 193° South 394 453 40,000  Level Washington Center
03:50PM 38.7858 -80.2419 193° South 394 453 40,000  Level Washington Center
03:51PM 38.6803 -80.2750 194° South 399 459 40,000  Level Washington Center
03:52PM 38.5833 -80.3008 192° South 399 459 40,000  Level Washington Center
03:53PM 38.4803 -80.3286 192° South 394 453 40,000  Level Washington Center
03:54PM 38.3725 -80.3589 192° South 394 453 40,000  Level Washington Center
03:55PM 38.2650 -80.3892 192° South 394 453 40,000  Level Washington Center
03:56PM 38.1511 -80.4239 193° South 394 453 40,000  Level Washington Center
03:57PM 38.0433 -80.4539 192° South 394 453 40,000  Level Washington Center
03:58PM 37.9358 -80.4814 191° South 394 453 40,000  Level Washington Center
03:59PM 37.8408 -80.5092 193° South 394 453 40,000  Level Washington Center
04:00PM 37.7353 -80.5392 193° South 394 453 40,000  Level Washington Center
04:02PM 37.5258 -80.5956 192° South 405 466 40,000  Level Atlanta Center
04:03PM 37.4183 -80.6264 193° South 410 472 40,000  Level Atlanta Center
04:04PM 37.3003 -80.6578 192° South 410 472 40,000  Level Atlanta Center
04:05PM 37.1928 -80.6858 192° South 410 472 40,000  Level Atlanta Center
04:06PM 37.0853 -80.7189 194° South 410 472 40,000  Level Atlanta Center
04:07PM 36.9867 -80.7750 204° Southwest 398 458 40,000  Level Atlanta Center
04:08PM 36.9006 -80.8278 206° Southwest 393 452 40,000  Level Atlanta Center
04:09PM 36.8019 -80.8864 205° Southwest 393 452 40,000  Level Atlanta Center
04:10PM 36.6972 -80.9475 205° Southwest 392 451 40,000  Level Atlanta Center
04:11PM 36.6006 -81.0056 206° Southwest 392 451 40,000  Level Atlanta Center
04:12PM 36.5019 -81.0661 206° Southwest 392 451 40,000  Level Atlanta Center
04:13PM 36.4136 -81.1183 205° Southwest 397 457 40,000  Level Atlanta Center
04:14PM 36.3147 -81.1786 206° Southwest 397 457 40,000  Level Atlanta Center
04:15PM 36.2142 -81.2389 206° Southwest 397 457 40,000  Level Atlanta Center
04:16PM 36.1150 -81.2911 203° Southwest 397 457 40,000  Level Atlanta Center
04:17PM 36.0075 -81.3231 194° South 390 449 40,000  Level Atlanta Center
04:18PM 35.8997 -81.3547 193° South 398 458 40,000  Level Atlanta Center
04:19PM 35.7919 -81.3864 193° South 398 458 40,000  Level Atlanta Center
04:20PM 35.6819 -81.4233 195° South 406 467 40,000  Level Atlanta Center
04:21PM 35.5681 -81.4525 192° South 417 480 40,000  Level Atlanta Center
04:22PM 35.4578 -81.4789 191° South 411 473 40,000  Level Atlanta Center
04:23PM 35.3478 -81.5078 192° South 411 473 40,000  Level Atlanta Center
04:24PM 35.2381 -81.5392 193° South 406 467 40,000  Level Atlanta Center
04:25PM 35.1281 -81.5703 193° South 411 473 40,000  Level Atlanta Center
04:26PM 35.0075 -81.5992 191° South 411 473 40,000  Level Atlanta Center
04:27PM 34.8978 -81.6328 194° South 411 473 40,000  Level Atlanta Center
04:28PM 34.7878 -81.6639 193° South 411 473 40,000  Level Atlanta Center
04:29PM 34.6775 -81.6922 192° South 411 473 40,000  Level Atlanta Center
04:30PM 34.5694 -81.7156 190° South 406 467 40,000  Level Atlanta Center
04:31PM 34.4594 -81.7461 193° South 406 467 40,000  Level Atlanta Center
04:32PM 34.3514 -81.7744 192° South 406 467 40,000  Level Atlanta Center
04:33PM 34.2414 -81.8025 192° South 411 473 40,000  Level Atlanta Center
04:34PM 34.1356 -81.8328 193° South 411 473 40,000  Level Atlanta Center
04:35PM 34.0275 -81.8581 191° South 406 467 40,000  Level Atlanta Center
04:36PM 33.9214 -81.8883 193° South 406 467 40,000  Level Atlanta Center
04:37PM 33.8133 -81.9161 192° South 406 467 40,000  Level Atlanta Center
04:38PM 33.7056 -81.9464 193° South 406 467 40,000  Level Atlanta Center
04:39PM 33.5994 -81.9736 192° South 401 461 40,000  Level Atlanta Center
04:40PM 33.4936 -82.0036 193° South 401 461 40,000  Level Atlanta Center
04:41PM 33.3833 -82.0286 191° South 396 456 40,000  Level Atlanta Center
04:42PM 33.2753 -82.0586 193° South 396 456 40,000  Level Atlanta Center
04:43PM 33.1692 -82.0883 193° South 396 456 40,000  Level Atlanta Center
04:44PM 33.0592 -82.1156 192° South 396 456 40,000  Level Atlanta Center
04:45PM 32.9422 -82.1206 182° South 402 463 40,000  Level Atlanta Center
04:47PM 32.6881 -82.1200 180° South 417 480 40,000  Level Jacksonville Center
04:48PM 32.5756 -82.1208 180° South 417 480 40,000  Level Jacksonville Center
04:49PM 32.4586 -82.1219 180° South 417 480 40,000  Level Jacksonville Center
04:50PM 32.3481 -82.1253 181° South 410 472 40,000  Level Jacksonville Center
04:51PM 32.2228 -82.1264 180° South 410 472 40,000  Level Jacksonville Center
04:52PM 32.1100 -82.1397 186° South 415 478 40,000  Level Jacksonville Center
04:53PM 32.0164 -82.1747 198° South 401 461 40,000  Level Jacksonville Center
04:54PM 31.9017 -82.2194 198° South 401 461 40,000  Level Jacksonville Center
04:55PM 31.7953 -82.2594 198° South 401 461 40,000  Level Jacksonville Center
04:56PM 31.6911 -82.3017 199° South 402 463 40,000  Level Jacksonville Center
04:57PM 31.5994 -82.3339 197° South 396 456 40,000  Level Jacksonville Center
04:58PM 31.4972 -82.3736 198° South 391 450 40,000  Level Jacksonville Center
04:59PM 31.3889 -82.4131 197° South 396 456 40,000  Level Jacksonville Center
05:00PM 31.2867 -82.4597 201° Southwest 402 463 40,000  Level Jacksonville Center
05:01PM 31.1806 -82.4992 198° South 402 463 40,000  Level Jacksonville Center
05:02PM 31.0761 -82.5383 198° South 407 468 40,000  Level Jacksonville Center
05:03PM 30.9678 -82.5800 198° South 401 461 40,000  Level Jacksonville Center
05:04PM 30.8614 -82.6214 198° South 401 461 40,000  Level Jacksonville Center
05:05PM 30.7550 -82.6631 199° South 401 461 40,000  Level Jacksonville Center
05:06PM 30.6486 -82.7042 198° South 401 461 40,000  Level Jacksonville Center
05:07PM 30.5442 -82.7381 196° South 401 461 40,000 -300 Level Jacksonville Center
05:08PM 30.4378 -82.7794 199° South 401 461 39,500 -540 Descending Jacksonville Center
05:09PM 30.3311 -82.8181 197° South 401 461 39,000 -300 Descending Jacksonville Center
05:10PM 30.2269 -82.8589 199° South 401 461 39,000  Level Jacksonville Center
05:11PM 30.1225 -82.8997 199° South 401 461 39,000  Level Jacksonville Center
05:12PM 30.0097 -82.9453 199° South 408 470 39,000  Level Jacksonville Center
05:13PM 29.9033 -82.9861 198° South 414 476 39,000  Level Jacksonville Center
05:14PM 29.7967 -83.0242 197° South 414 476 39,000  Level Jacksonville Center
05:15PM 29.6881 -83.0622 197° South 409 471 39,000  Level Jacksonville Center
05:16PM 29.5775 -83.0836 190° South 398 458 39,000  Level Jacksonville Center
05:17PM 29.4500 -83.1094 190° South 411 473 39,000  Level Jacksonville Center
05:18PM 29.3394 -83.1331 191° South 417 480 39,000 -240 Level Jacksonville Center
05:19PM 29.2308 -83.1567 191° South 412 474 38,600 -540 Descending Jacksonville Center
05:20PM 29.1200 -83.1803 191° South 412 474 38,000 -300 Descending Jacksonville Center
05:21PM 29.0114 -83.2036 191° South 412 474 38,000  Level Jacksonville Center
05:22PM 28.9008 -83.2294 192° South 412 474 38,000  Level Jacksonville Center
05:23PM 28.7900 -83.2528 190° South 412 474 38,000  Level Jacksonville Center
05:24PM 28.6814 -83.2736 190° South 412 474 38,000  Level Jacksonville Center
05:26PM 28.4383 -83.3286 191° South 408 470 38,000 -600 Level Miami Center
05:27PM 28.3289 -83.3506 190° South 408 470 36,100 -1,500 Descending Miami Center
05:28PM 28.2261 -83.3681 189° South 407 468 35,000 -600 Descending Miami Center
05:29PM 28.1089 -83.3731 182° South 416 479 35,000  Level Miami Center
05:30PM 27.9983 -83.3292 161° South 416 479 35,000  Level Miami Center
05:31PM 27.8933 -83.2550 148° Southeast 416 479 35,000  Level Miami Center
05:32PM 27.7922 -83.1839 148° Southeast 423 487 35,000 -180 Level Miami Center
05:33PM 27.6911 -83.1103 147° Southeast 428 493 34,700 -1,260 Descending Miami Center
05:34PM 27.5878 -83.0389 149° Southeast 433 498 32,500 -2,280 Descending Miami Center
05:35PM 27.4886 -82.9681 148° Southeast 433 498 30,200 -2,280 Descending Miami Center
05:36PM 27.3853 -82.8972 149° Southeast 433 498 28,000 -2,400 Descending Miami Center
05:37PM 27.2717 -82.8167 148° Southeast 443 510 25,400 -2,520 Descending Miami Center
05:38PM 27.1742 -82.7486 148° Southeast 433 498 23,000 -2,340 Descending Miami Center
05:39PM 27.0789 -82.6808 148° Southeast 420 483 20,800 -2,160 Descending Miami Center
05:40PM 26.9856 -82.6156 148° Southeast 407 468 18,700 -2,100 Descending Miami Center
05:41PM 26.8961 -82.5553 149° Southeast 395 455 16,700 -1,920 Descending Miami Center
05:42PM 26.8219 -82.4794 138° Southeast 367 422 14,900 -1,800 Descending Miami Center
05:43PM 26.7542 -82.3972 133° Southeast 362 417 13,100 -1,500 Descending Miami Center
05:44PM 26.6906 -82.3131 130° Southeast 348 400 12,000 -900 Descending Miami Center
05:45PM 26.6328 -82.2406 132° Southeast 329 379 11,300 -1,920 Descending Miami Center
05:46PM 26.5808 -82.1731 131° Southeast 299 344 8,200 -2,700 Descending Miami Center
05:47PM 26.5289 -82.1128 134° Southeast 280 322 6,000 -1,500 Descending Miami Center
05:48PM 26.4864 -82.0761 142° Southeast 266 306 5,200 -600 Descending Miami Center
05:49PM 26.4214 -82.0247 145° Southeast 258 297 4,900 -960 Descending Miami Center
05:50PM 26.3622 -81.9803 146° Southeast 258 297 3,300 -1,620 Descending Miami Center
05:52PM 26.2563 -81.8735 138° Southeast  Level FlightAware Approximate
05:59PM 26.1500 -81.7667 141° Southeast  Level FlightAware Approximate
06:00PM 26.1524 -81.7756 141° Southeast  Level Estimated
06:01PM 26.1524 -81.7756 141° Southeast  Level Estimated
06:02PM 26.1524 -81.7756 141° Southeast  Level Estimated
06:03PM 26.1524 -81.7756 141° Southeast  Level Estimated
06:04PM 26.1524 -81.7756 141° Southeast  Level Estimated